sensor_id;sensor_type;location;lat;lon;timestamp;temperature;humidity
45643;DHT22;31358;46.008;11.144;2023-03-01T00:00:54;3.70;94.10
45643;DHT22;31358;46.008;11.144;2023-03-01T00:03:19;3.90;94.00
45643;DHT22;31358;46.008;11.144;2023-03-01T00:05:46;3.90;93.80
45643;DHT22;31358;46.008;11.144;2023-03-01T00:08:12;3.70;93.90
45643;DHT22;31358;46.008;11.144;2023-03-01T00:10:38;3.50;94.20
45643;DHT22;31358;46.008;11.144;2023-03-01T00:13:04;3.30;94.50
45643;DHT22;31358;46.008;11.144;2023-03-01T00:15:31;3.40;94.50
45643;DHT22;31358;46.008;11.144;2023-03-01T00:17:57;3.50;94.30
45643;DHT22;31358;46.008;11.144;2023-03-01T00:20:23;3.80;94.20
45643;DHT22;31358;46.008;11.144;2023-03-01T00:22:49;3.90;93.90
45643;DHT22;31358;46.008;11.144;2023-03-01T00:25:14;3.80;94.00
45643;DHT22;31358;46.008;11.144;2023-03-01T00:27:40;3.60;94.30
45643;DHT22;31358;46.008;11.144;2023-03-01T00:30:06;3.50;94.40
45643;DHT22;31358;46.008;11.144;2023-03-01T00:32:32;3.60;94.40
45643;DHT22;31358;46.008;11.144;2023-03-01T00:34:58;3.60;94.40
45643;DHT22;31358;46.008;11.144;2023-03-01T00:37:23;3.60;94.40
45643;DHT22;31358;46.008;11.144;2023-03-01T00:39:49;3.50;94.80
45643;DHT22;31358;46.008;11.144;2023-03-01T00:42:16;3.40;94.70
45643;DHT22;31358;46.008;11.144;2023-03-01T00:44:41;3.10;95.00
45643;DHT22;31358;46.008;11.144;2023-03-01T00:47:07;3.30;95.10
45643;DHT22;31358;46.008;11.144;2023-03-01T00:49:33;3.20;95.00
45643;DHT22;31358;46.008;11.144;2023-03-01T00:51:59;3.20;94.90
45643;DHT22;31358;46.008;11.144;2023-03-01T00:54:25;3.70;94.60
45643;DHT22;31358;46.008;11.144;2023-03-01T00:56:50;3.80;94.40
45643;DHT22;31358;46.008;11.144;2023-03-01T00:59:16;3.70;94.40
45643;DHT22;31358;46.008;11.144;2023-03-01T01:01:42;3.80;94.30
45643;DHT22;31358;46.008;11.144;2023-03-01T01:04:10;3.80;94.20
45643;DHT22;31358;46.008;11.144;2023-03-01T01:06:38;3.90;94.10
45643;DHT22;31358;46.008;11.144;2023-03-01T01:09:06;3.90;94.10
45643;DHT22;31358;46.008;11.144;2023-03-01T01:11:33;4.10;94.00
45643;DHT22;31358;46.008;11.144;2023-03-01T01:14:00;4.00;93.90
45643;DHT22;31358;46.008;11.144;2023-03-01T01:16:28;3.80;94.00
45643;DHT22;31358;46.008;11.144;2023-03-01T01:18:54;3.70;94.20
45643;DHT22;31358;46.008;11.144;2023-03-01T01:21:23;3.60;94.30
45643;DHT22;31358;46.008;11.144;2023-03-01T01:23:49;3.60;94.30
45643;DHT22;31358;46.008;11.144;2023-03-01T01:26:23;3.70;94.30
45643;DHT22;31358;46.008;11.144;2023-03-01T01:28:49;3.60;94.40
45643;DHT22;31358;46.008;11.144;2023-03-01T01:31:15;3.60;94.40
45643;DHT22;31358;46.008;11.144;2023-03-01T01:33:41;3.50;94.30
45643;DHT22;31358;46.008;11.144;2023-03-01T01:36:08;3.50;94.50
45643;DHT22;31358;46.008;11.144;2023-03-01T01:38:34;3.60;94.40
45643;DHT22;31358;46.008;11.144;2023-03-01T01:44:26;3.80;94.20
45643;DHT22;31358;46.008;11.144;2023-03-01T01:47:05;3.50;94.30
45643;DHT22;31358;46.008;11.144;2023-03-01T01:49:42;3.40;94.60
45643;DHT22;31358;46.008;11.144;2023-03-01T01:52:27;3.30;94.80
45643;DHT22;31358;46.008;11.144;2023-03-01T01:55:00;3.30;94.90
45643;DHT22;31358;46.008;11.144;2023-03-01T01:57:39;3.40;94.70
45643;DHT22;31358;46.008;11.144;2023-03-01T02:00:22;3.20;94.80
45643;DHT22;31358;46.008;11.144;2023-03-01T02:02:51;3.40;94.70
45643;DHT22;31358;46.008;11.144;2023-03-01T02:08:19;3.40;94.70
45643;DHT22;31358;46.008;11.144;2023-03-01T02:10:46;3.60;94.50
45643;DHT22;31358;46.008;11.144;2023-03-01T02:13:13;3.40;94.50
45643;DHT22;31358;46.008;11.144;2023-03-01T02:15:40;3.20;94.90
45643;DHT22;31358;46.008;11.144;2023-03-01T02:18:07;3.10;95.20
45643;DHT22;31358;46.008;11.144;2023-03-01T02:23:24;3.10;95.20
45643;DHT22;31358;46.008;11.144;2023-03-01T02:26:05;3.60;94.80
45643;DHT22;31358;46.008;11.144;2023-03-01T02:28:37;3.70;94.50
45643;DHT22;31358;46.008;11.144;2023-03-01T02:31:07;3.30;95.00
45643;DHT22;31358;46.008;11.144;2023-03-01T02:33:53;3.20;94.90
45643;DHT22;31358;46.008;11.144;2023-03-01T02:36:29;2.90;95.40
45643;DHT22;31358;46.008;11.144;2023-03-01T02:38:57;2.80;95.60
45643;DHT22;31358;46.008;11.144;2023-03-01T02:41:26;2.50;96.00
45643;DHT22;31358;46.008;11.144;2023-03-01T02:43:52;2.70;96.20
45643;DHT22;31358;46.008;11.144;2023-03-01T02:46:24;3.10;95.40
45643;DHT22;31358;46.008;11.144;2023-03-01T02:48:57;3.10;95.30
45643;DHT22;31358;46.008;11.144;2023-03-01T02:54:34;3.60;94.60
45643;DHT22;31358;46.008;11.144;2023-03-01T02:57:02;3.70;94.50
45643;DHT22;31358;46.008;11.144;2023-03-01T02:59:33;3.60;94.60
45643;DHT22;31358;46.008;11.144;2023-03-01T03:02:17;3.80;94.50
45643;DHT22;31358;46.008;11.144;2023-03-01T03:04:45;3.60;94.50
45643;DHT22;31358;46.008;11.144;2023-03-01T03:07:11;3.40;94.70
45643;DHT22;31358;46.008;11.144;2023-03-01T03:09:37;3.40;94.80
45643;DHT22;31358;46.008;11.144;2023-03-01T03:12:03;3.50;94.90
45643;DHT22;31358;46.008;11.144;2023-03-01T03:14:28;3.60;94.70
45643;DHT22;31358;46.008;11.144;2023-03-01T03:16:54;3.80;94.40
45643;DHT22;31358;46.008;11.144;2023-03-01T03:19:20;3.70;94.40
45643;DHT22;31358;46.008;11.144;2023-03-01T03:21:46;3.60;94.30
45643;DHT22;31358;46.008;11.144;2023-03-01T03:24:12;3.30;94.70
45643;DHT22;31358;46.008;11.144;2023-03-01T03:26:37;2.90;95.40
45643;DHT22;31358;46.008;11.144;2023-03-01T03:29:03;2.60;95.90
45643;DHT22;31358;46.008;11.144;2023-03-01T03:31:29;2.70;96.00
45643;DHT22;31358;46.008;11.144;2023-03-01T03:33:55;3.00;95.70
45643;DHT22;31358;46.008;11.144;2023-03-01T03:36:23;3.20;95.20
45643;DHT22;31358;46.008;11.144;2023-03-01T03:38:49;3.10;95.30
45643;DHT22;31358;46.008;11.144;2023-03-01T03:41:15;3.10;95.30
45643;DHT22;31358;46.008;11.144;2023-03-01T03:43:43;3.10;95.50
45643;DHT22;31358;46.008;11.144;2023-03-01T03:46:10;3.20;95.30
45643;DHT22;31358;46.008;11.144;2023-03-01T03:48:42;3.40;95.00
45643;DHT22;31358;46.008;11.144;2023-03-01T03:51:16;3.30;95.00
45643;DHT22;31358;46.008;11.144;2023-03-01T03:53:43;3.30;95.30
45643;DHT22;31358;46.008;11.144;2023-03-01T03:56:09;3.20;95.20
45643;DHT22;31358;46.008;11.144;2023-03-01T03:58:35;3.10;95.30
45643;DHT22;31358;46.008;11.144;2023-03-01T04:01:01;3.00;95.40
45643;DHT22;31358;46.008;11.144;2023-03-01T04:03:28;3.10;95.50
45643;DHT22;31358;46.008;11.144;2023-03-01T04:05:54;3.10;95.50
45643;DHT22;31358;46.008;11.144;2023-03-01T04:08:23;3.20;95.30
45643;DHT22;31358;46.008;11.144;2023-03-01T04:10:51;3.10;95.30
45643;DHT22;31358;46.008;11.144;2023-03-01T04:13:21;3.10;95.50
45643;DHT22;31358;46.008;11.144;2023-03-01T04:15:54;3.20;95.30
45643;DHT22;31358;46.008;11.144;2023-03-01T04:18:22;3.00;95.50
45643;DHT22;31358;46.008;11.144;2023-03-01T04:20:48;3.10;95.20
45643;DHT22;31358;46.008;11.144;2023-03-01T04:23:17;3.00;95.20
45643;DHT22;31358;46.008;11.144;2023-03-01T04:28:25;2.70;95.80
45643;DHT22;31358;46.008;11.144;2023-03-01T04:30:53;2.60;96.00
45643;DHT22;31358;46.008;11.144;2023-03-01T04:33:19;2.40;96.20
45643;DHT22;31358;46.008;11.144;2023-03-01T04:35:45;2.40;96.60
45643;DHT22;31358;46.008;11.144;2023-03-01T04:38:11;2.20;96.80
45643;DHT22;31358;46.008;11.144;2023-03-01T04:40:37;2.40;96.50
45643;DHT22;31358;46.008;11.144;2023-03-01T04:43:03;2.40;96.70
45643;DHT22;31358;46.008;11.144;2023-03-01T04:45:29;2.40;96.90
45643;DHT22;31358;46.008;11.144;2023-03-01T04:47:55;2.30;96.50
45643;DHT22;31358;46.008;11.144;2023-03-01T04:50:23;2.10;96.90
45643;DHT22;31358;46.008;11.144;2023-03-01T04:52:49;1.80;97.40
45643;DHT22;31358;46.008;11.144;2023-03-01T04:55:15;1.80;97.80
45643;DHT22;31358;46.008;11.144;2023-03-01T04:57:41;1.90;97.50
45643;DHT22;31358;46.008;11.144;2023-03-01T05:00:09;2.10;97.40
45643;DHT22;31358;46.008;11.144;2023-03-01T05:02:53;2.20;97.00
45643;DHT22;31358;46.008;11.144;2023-03-01T05:05:41;2.20;97.20
45643;DHT22;31358;46.008;11.144;2023-03-01T05:08:07;2.20;97.10
45643;DHT22;31358;46.008;11.144;2023-03-01T05:10:34;2.10;97.20
45643;DHT22;31358;46.008;11.144;2023-03-01T05:13:01;2.10;97.10
45643;DHT22;31358;46.008;11.144;2023-03-01T05:15:30;2.20;96.90
45643;DHT22;31358;46.008;11.144;2023-03-01T05:17:58;2.30;96.80
45643;DHT22;31358;46.008;11.144;2023-03-01T05:20:29;2.30;97.10
45643;DHT22;31358;46.008;11.144;2023-03-01T05:22:57;2.20;96.90
45643;DHT22;31358;46.008;11.144;2023-03-01T05:25:24;2.10;97.20
45643;DHT22;31358;46.008;11.144;2023-03-01T05:27:50;2.00;97.20
45643;DHT22;31358;46.008;11.144;2023-03-01T05:30:16;2.10;97.30
45643;DHT22;31358;46.008;11.144;2023-03-01T05:32:48;2.20;97.10
45643;DHT22;31358;46.008;11.144;2023-03-01T05:35:16;2.20;97.10
45643;DHT22;31358;46.008;11.144;2023-03-01T05:37:44;2.20;97.20
45643;DHT22;31358;46.008;11.144;2023-03-01T05:40:12;2.10;97.30
45643;DHT22;31358;46.008;11.144;2023-03-01T05:42:45;2.00;97.50
45643;DHT22;31358;46.008;11.144;2023-03-01T05:45:12;2.20;97.40
45643;DHT22;31358;46.008;11.144;2023-03-01T05:47:39;2.40;97.00
45643;DHT22;31358;46.008;11.144;2023-03-01T05:50:17;2.30;97.10
45643;DHT22;31358;46.008;11.144;2023-03-01T05:52:49;2.30;97.00
45643;DHT22;31358;46.008;11.144;2023-03-01T05:55:20;2.10;97.40
45643;DHT22;31358;46.008;11.144;2023-03-01T05:57:46;2.00;97.60
45643;DHT22;31358;46.008;11.144;2023-03-01T06:00:15;2.00;97.50
45643;DHT22;31358;46.008;11.144;2023-03-01T06:02:41;2.20;97.30
45643;DHT22;31358;46.008;11.144;2023-03-01T06:05:09;1.90;97.80
45643;DHT22;31358;46.008;11.144;2023-03-01T06:07:35;2.10;97.70
45643;DHT22;31358;46.008;11.144;2023-03-01T06:10:06;2.10;97.60
45643;DHT22;31358;46.008;11.144;2023-03-01T06:12:33;2.40;97.20
45643;DHT22;31358;46.008;11.144;2023-03-01T06:14:59;2.40;96.90
45643;DHT22;31358;46.008;11.144;2023-03-01T06:17:25;2.40;96.90
45643;DHT22;31358;46.008;11.144;2023-03-01T06:19:51;2.50;96.70
45643;DHT22;31358;46.008;11.144;2023-03-01T06:22:16;2.30;97.10
45643;DHT22;31358;46.008;11.144;2023-03-01T06:24:42;2.30;97.30
45643;DHT22;31358;46.008;11.144;2023-03-01T06:27:08;2.40;97.10
45643;DHT22;31358;46.008;11.144;2023-03-01T06:29:33;2.40;97.00
45643;DHT22;31358;46.008;11.144;2023-03-01T06:31:59;2.50;97.10
45643;DHT22;31358;46.008;11.144;2023-03-01T06:34:24;2.70;96.60
45643;DHT22;31358;46.008;11.144;2023-03-01T06:36:50;2.80;96.40
45643;DHT22;31358;46.008;11.144;2023-03-01T06:39:16;2.90;96.70
45643;DHT22;31358;46.008;11.144;2023-03-01T06:41:43;3.20;95.80
45643;DHT22;31358;46.008;11.144;2023-03-01T06:44:09;3.40;95.70
45643;DHT22;31358;46.008;11.144;2023-03-01T06:46:34;3.20;96.10
45643;DHT22;31358;46.008;11.144;2023-03-01T06:49:00;3.00;96.20
45643;DHT22;31358;46.008;11.144;2023-03-01T06:51:26;3.10;96.40
45643;DHT22;31358;46.008;11.144;2023-03-01T06:53:51;3.30;96.20
45643;DHT22;31358;46.008;11.144;2023-03-01T06:56:17;3.40;95.90
45643;DHT22;31358;46.008;11.144;2023-03-01T06:58:42;3.50;96.00
45643;DHT22;31358;46.008;11.144;2023-03-01T07:01:09;3.60;95.90
45643;DHT22;31358;46.008;11.144;2023-03-01T07:03:35;3.70;96.00
45643;DHT22;31358;46.008;11.144;2023-03-01T07:06:00;3.70;95.70
45643;DHT22;31358;46.008;11.144;2023-03-01T07:08:26;3.60;95.70
45643;DHT22;31358;46.008;11.144;2023-03-01T07:10:56;3.80;95.50
45643;DHT22;31358;46.008;11.144;2023-03-01T07:13:22;3.90;95.80
45643;DHT22;31358;46.008;11.144;2023-03-01T07:15:47;4.00;95.90
45643;DHT22;31358;46.008;11.144;2023-03-01T07:18:13;4.10;95.60
45643;DHT22;31358;46.008;11.144;2023-03-01T07:20:39;4.00;95.60
45643;DHT22;31358;46.008;11.144;2023-03-01T07:23:05;4.10;94.90
45643;DHT22;31358;46.008;11.144;2023-03-01T07:25:31;4.10;94.80
45643;DHT22;31358;46.008;11.144;2023-03-01T07:27:58;4.20;94.90
45643;DHT22;31358;46.008;11.144;2023-03-01T07:30:24;4.30;94.60
45643;DHT22;31358;46.008;11.144;2023-03-01T10:59:03;7.80;90.40
45643;DHT22;31358;46.008;11.144;2023-03-01T11:01:31;7.80;89.80
45643;DHT22;31358;46.008;11.144;2023-03-01T11:04:17;7.80;90.00
45643;DHT22;31358;46.008;11.144;2023-03-01T11:06:43;7.80;89.80
45643;DHT22;31358;46.008;11.144;2023-03-01T11:09:23;8.10;90.30
45643;DHT22;31358;46.008;11.144;2023-03-01T11:11:57;8.20;90.20
45643;DHT22;31358;46.008;11.144;2023-03-01T11:14:24;8.70;90.30
45643;DHT22;31358;46.008;11.144;2023-03-01T11:17:02;8.60;90.00
45643;DHT22;31358;46.008;11.144;2023-03-01T11:19:29;8.40;89.40
45643;DHT22;31358;46.008;11.144;2023-03-01T11:22:02;8.30;89.00
45643;DHT22;31358;46.008;11.144;2023-03-01T11:24:41;8.30;89.80
45643;DHT22;31358;46.008;11.144;2023-03-01T11:27:22;8.30;90.00
45643;DHT22;31358;46.008;11.144;2023-03-01T11:29:57;8.30;90.30
45643;DHT22;31358;46.008;11.144;2023-03-01T11:32:29;8.40;89.50
45643;DHT22;31358;46.008;11.144;2023-03-01T11:35:05;8.40;91.30
45643;DHT22;31358;46.008;11.144;2023-03-01T11:37:39;8.40;90.20
45643;DHT22;31358;46.008;11.144;2023-03-01T11:40:25;8.30;90.40
45643;DHT22;31358;46.008;11.144;2023-03-01T11:51:12;8.30;90.10
45643;DHT22;31358;46.008;11.144;2023-03-01T11:57:32;8.40;89.20
45643;DHT22;31358;46.008;11.144;2023-03-01T11:59:51;8.50;88.30
45643;DHT22;31358;46.008;11.144;2023-03-01T12:02:44;8.50;88.70
45643;DHT22;31358;46.008;11.144;2023-03-01T12:08:19;8.50;88.20
45643;DHT22;31358;46.008;11.144;2023-03-01T12:32:47;8.40;89.80
45643;DHT22;31358;46.008;11.144;2023-03-01T12:40:42;8.10;89.40
45643;DHT22;31358;46.008;11.144;2023-03-01T12:49:08;8.00;89.80
45643;DHT22;31358;46.008;11.144;2023-03-01T12:51:37;8.10;90.20
45643;DHT22;31358;46.008;11.144;2023-03-01T12:54:19;8.20;90.20
45643;DHT22;31358;46.008;11.144;2023-03-01T12:56:47;8.20;89.60
45643;DHT22;31358;46.008;11.144;2023-03-01T12:59:30;8.20;89.60
45643;DHT22;31358;46.008;11.144;2023-03-01T13:10:27;8.30;88.80
45643;DHT22;31358;46.008;11.144;2023-03-01T13:17:52;8.30;88.90
45643;DHT22;31358;46.008;11.144;2023-03-01T13:20:29;8.40;88.80
45643;DHT22;31358;46.008;11.144;2023-03-01T13:23:13;8.50;88.20
45643;DHT22;31358;46.008;11.144;2023-03-01T13:28:57;8.40;89.40
45643;DHT22;31358;46.008;11.144;2023-03-01T13:33:54;8.20;90.00
45643;DHT22;31358;46.008;11.144;2023-03-01T13:38:56;8.20;90.00
45643;DHT22;31358;46.008;11.144;2023-03-01T13:41:49;8.20;90.10
45643;DHT22;31358;46.008;11.144;2023-03-01T13:44:38;8.30;90.20
45643;DHT22;31358;46.008;11.144;2023-03-01T13:49:46;8.40;90.40
45643;DHT22;31358;46.008;11.144;2023-03-01T13:52:37;8.40;90.10
45643;DHT22;31358;46.008;11.144;2023-03-01T13:57:40;8.50;90.00
45643;DHT22;31358;46.008;11.144;2023-03-01T14:05:40;8.50;90.20
45643;DHT22;31358;46.008;11.144;2023-03-01T14:08:19;8.50;90.70
45643;DHT22;31358;46.008;11.144;2023-03-01T14:18:52;8.80;90.60
45643;DHT22;31358;46.008;11.144;2023-03-01T14:21:19;8.80;90.90
45643;DHT22;31358;46.008;11.144;2023-03-01T14:23:46;8.70;90.80
45643;DHT22;31358;46.008;11.144;2023-03-01T14:26:12;8.70;90.90
45643;DHT22;31358;46.008;11.144;2023-03-01T14:28:38;8.70;91.10
45643;DHT22;31358;46.008;11.144;2023-03-01T14:31:37;8.70;91.00
45643;DHT22;31358;46.008;11.144;2023-03-01T14:34:03;8.60;90.80
45643;DHT22;31358;46.008;11.144;2023-03-01T14:36:31;8.60;91.10
45643;DHT22;31358;46.008;11.144;2023-03-01T14:38:57;8.50;90.90
45643;DHT22;31358;46.008;11.144;2023-03-01T14:41:33;8.50;91.20
45643;DHT22;31358;46.008;11.144;2023-03-01T14:44:05;8.50;91.00
45643;DHT22;31358;46.008;11.144;2023-03-01T14:46:40;8.60;90.90
45643;DHT22;31358;46.008;11.144;2023-03-01T14:49:14;8.60;91.10
45643;DHT22;31358;46.008;11.144;2023-03-01T14:51:45;8.60;91.30
45643;DHT22;31358;46.008;11.144;2023-03-01T14:54:25;8.60;91.50
45643;DHT22;31358;46.008;11.144;2023-03-01T14:56:52;8.60;91.50
45643;DHT22;31358;46.008;11.144;2023-03-01T14:59:22;8.70;91.40
45643;DHT22;31358;46.008;11.144;2023-03-01T15:01:50;8.60;91.40
45643;DHT22;31358;46.008;11.144;2023-03-01T15:04:17;8.70;91.40
45643;DHT22;31358;46.008;11.144;2023-03-01T15:06:44;8.70;91.70
45643;DHT22;31358;46.008;11.144;2023-03-01T15:09:16;8.70;91.40
45643;DHT22;31358;46.008;11.144;2023-03-01T15:11:42;8.70;92.00
45643;DHT22;31358;46.008;11.144;2023-03-01T15:14:40;8.70;91.60
45643;DHT22;31358;46.008;11.144;2023-03-01T15:17:28;8.70;91.80
45643;DHT22;31358;46.008;11.144;2023-03-01T15:19:56;8.70;92.00
45643;DHT22;31358;46.008;11.144;2023-03-01T15:22:23;8.70;92.00
45643;DHT22;31358;46.008;11.144;2023-03-01T15:24:50;8.70;91.70
45643;DHT22;31358;46.008;11.144;2023-03-01T15:27:21;8.70;91.80
45643;DHT22;31358;46.008;11.144;2023-03-01T15:30:21;8.70;91.90
45643;DHT22;31358;46.008;11.144;2023-03-01T15:32:47;8.70;92.00
45643;DHT22;31358;46.008;11.144;2023-03-01T15:35:41;8.70;91.90
45643;DHT22;31358;46.008;11.144;2023-03-01T15:41:03;8.70;92.20
45643;DHT22;31358;46.008;11.144;2023-03-01T15:43:44;8.70;92.10
45643;DHT22;31358;46.008;11.144;2023-03-01T15:46:29;8.70;92.20
45643;DHT22;31358;46.008;11.144;2023-03-01T15:48:58;8.70;92.20
45643;DHT22;31358;46.008;11.144;2023-03-01T15:51:36;8.70;92.30
45643;DHT22;31358;46.008;11.144;2023-03-01T15:54:14;8.80;92.00
45643;DHT22;31358;46.008;11.144;2023-03-01T15:56:42;9.10;91.60
45643;DHT22;31358;46.008;11.144;2023-03-01T15:59:09;9.40;91.30
45643;DHT22;31358;46.008;11.144;2023-03-01T16:01:37;9.40;91.10
45643;DHT22;31358;46.008;11.144;2023-03-01T16:04:02;9.60;91.00
45643;DHT22;31358;46.008;11.144;2023-03-01T16:06:28;9.70;90.70
45643;DHT22;31358;46.008;11.144;2023-03-01T16:08:54;9.80;90.70
45643;DHT22;31358;46.008;11.144;2023-03-01T16:11:20;9.80;90.60
45643;DHT22;31358;46.008;11.144;2023-03-01T16:13:47;9.80;90.60
45643;DHT22;31358;46.008;11.144;2023-03-01T16:16:14;9.80;90.50
45643;DHT22;31358;46.008;11.144;2023-03-01T16:18:46;9.80;90.70
45643;DHT22;31358;46.008;11.144;2023-03-01T16:21:23;9.80;90.80
45643;DHT22;31358;46.008;11.144;2023-03-01T16:23:49;9.70;90.70
45643;DHT22;31358;46.008;11.144;2023-03-01T16:26:15;9.70;90.70
45643;DHT22;31358;46.008;11.144;2023-03-01T16:28:44;9.70;90.70
45643;DHT22;31358;46.008;11.144;2023-03-01T16:31:11;9.60;90.80
45643;DHT22;31358;46.008;11.144;2023-03-01T16:33:37;9.00;91.00
45643;DHT22;31358;46.008;11.144;2023-03-01T16:36:11;8.80;90.90
45643;DHT22;31358;46.008;11.144;2023-03-01T16:38:37;8.70;90.80
45643;DHT22;31358;46.008;11.144;2023-03-01T16:41:04;8.70;90.90
45643;DHT22;31358;46.008;11.144;2023-03-01T16:43:30;8.70;91.00
45643;DHT22;31358;46.008;11.144;2023-03-01T16:45:57;8.60;91.00
45643;DHT22;31358;46.008;11.144;2023-03-01T16:48:24;8.50;91.10
45643;DHT22;31358;46.008;11.144;2023-03-01T16:51:00;8.50;91.50
45643;DHT22;31358;46.008;11.144;2023-03-01T16:53:27;8.50;91.30
45643;DHT22;31358;46.008;11.144;2023-03-01T16:55:55;8.50;91.40
45643;DHT22;31358;46.008;11.144;2023-03-01T16:58:21;8.50;91.50
45643;DHT22;31358;46.008;11.144;2023-03-01T17:00:49;8.50;92.10
45643;DHT22;31358;46.008;11.144;2023-03-01T17:03:15;8.50;91.60
45643;DHT22;31358;46.008;11.144;2023-03-01T17:05:42;8.60;91.90
45643;DHT22;31358;46.008;11.144;2023-03-01T17:08:08;8.50;91.90
45643;DHT22;31358;46.008;11.144;2023-03-01T17:10:33;8.40;92.20
45643;DHT22;31358;46.008;11.144;2023-03-01T17:12:59;8.40;92.10
45643;DHT22;31358;46.008;11.144;2023-03-01T17:15:25;8.50;92.20
45643;DHT22;31358;46.008;11.144;2023-03-01T17:17:50;8.50;92.00
45643;DHT22;31358;46.008;11.144;2023-03-01T17:20:16;8.60;92.30
45643;DHT22;31358;46.008;11.144;2023-03-01T17:22:42;8.50;92.50
45643;DHT22;31358;46.008;11.144;2023-03-01T17:25:09;8.30;92.90
45643;DHT22;31358;46.008;11.144;2023-03-01T17:27:36;8.30;92.90
45643;DHT22;31358;46.008;11.144;2023-03-01T17:30:03;8.30;93.00
45643;DHT22;31358;46.008;11.144;2023-03-01T17:32:30;8.30;93.10
45643;DHT22;31358;46.008;11.144;2023-03-01T17:34:56;8.50;93.10
45643;DHT22;31358;46.008;11.144;2023-03-01T17:37:21;8.40;93.10
45643;DHT22;31358;46.008;11.144;2023-03-01T17:39:47;8.40;93.10
45643;DHT22;31358;46.008;11.144;2023-03-01T17:42:13;8.30;93.20
45643;DHT22;31358;46.008;11.144;2023-03-01T17:44:38;8.30;93.20
45643;DHT22;31358;46.008;11.144;2023-03-01T17:47:05;8.20;93.30
45643;DHT22;31358;46.008;11.144;2023-03-01T17:49:31;8.20;93.40
45643;DHT22;31358;46.008;11.144;2023-03-01T17:51:57;8.20;93.50
45643;DHT22;31358;46.008;11.144;2023-03-01T17:54:23;8.20;93.60
45643;DHT22;31358;46.008;11.144;2023-03-01T17:56:49;8.30;93.80
45643;DHT22;31358;46.008;11.144;2023-03-01T17:59:15;8.20;93.80
45643;DHT22;31358;46.008;11.144;2023-03-01T18:01:44;8.10;94.00
45643;DHT22;31358;46.008;11.144;2023-03-01T18:04:09;8.10;94.20
45643;DHT22;31358;46.008;11.144;2023-03-01T18:06:36;8.00;94.40
45643;DHT22;31358;46.008;11.144;2023-03-01T18:09:02;8.00;94.60
45643;DHT22;31358;46.008;11.144;2023-03-01T18:11:28;8.00;94.80
45643;DHT22;31358;46.008;11.144;2023-03-01T18:13:54;8.10;95.20
45643;DHT22;31358;46.008;11.144;2023-03-01T18:16:21;8.00;95.70
45643;DHT22;31358;46.008;11.144;2023-03-01T18:18:47;7.90;95.50
45643;DHT22;31358;46.008;11.144;2023-03-01T18:21:14;8.10;95.60
45643;DHT22;31358;46.008;11.144;2023-03-01T18:23:40;8.10;96.20
45643;DHT22;31358;46.008;11.144;2023-03-01T18:26:11;8.10;96.80
45643;DHT22;31358;46.008;11.144;2023-03-01T18:28:38;8.00;97.30
45643;DHT22;31358;46.008;11.144;2023-03-01T18:31:08;7.90;98.40
45643;DHT22;31358;46.008;11.144;2023-03-01T18:33:36;7.80;98.60
45643;DHT22;31358;46.008;11.144;2023-03-01T18:36:03;7.80;99.90
45643;DHT22;31358;46.008;11.144;2023-03-01T18:38:29;7.80;99.70
45643;DHT22;31358;46.008;11.144;2023-03-01T18:40:55;7.80;99.80
45643;DHT22;31358;46.008;11.144;2023-03-01T18:43:22;7.70;99.90
45643;DHT22;31358;46.008;11.144;2023-03-01T18:45:48;7.60;99.90
45643;DHT22;31358;46.008;11.144;2023-03-01T18:48:14;7.60;99.90
45643;DHT22;31358;46.008;11.144;2023-03-01T18:50:40;7.50;99.90
45643;DHT22;31358;46.008;11.144;2023-03-01T18:53:07;7.50;99.90
45643;DHT22;31358;46.008;11.144;2023-03-01T18:55:37;7.40;99.90
45643;DHT22;31358;46.008;11.144;2023-03-01T18:58:03;7.40;99.90
45643;DHT22;31358;46.008;11.144;2023-03-01T19:00:29;7.30;99.90
45643;DHT22;31358;46.008;11.144;2023-03-01T19:02:54;7.20;99.90
45643;DHT22;31358;46.008;11.144;2023-03-01T19:05:21;7.30;99.90
45643;DHT22;31358;46.008;11.144;2023-03-01T19:07:48;7.20;99.90
45643;DHT22;31358;46.008;11.144;2023-03-01T19:10:13;7.30;99.90
45643;DHT22;31358;46.008;11.144;2023-03-01T19:12:39;7.10;99.90
45643;DHT22;31358;46.008;11.144;2023-03-01T19:15:05;7.00;99.90
45643;DHT22;31358;46.008;11.144;2023-03-01T19:17:31;7.30;99.90
45643;DHT22;31358;46.008;11.144;2023-03-01T19:19:58;7.20;99.90
45643;DHT22;31358;46.008;11.144;2023-03-01T19:22:25;7.10;99.90
45643;DHT22;31358;46.008;11.144;2023-03-01T19:24:51;7.00;99.90
45643;DHT22;31358;46.008;11.144;2023-03-01T19:27:17;7.00;99.90
45643;DHT22;31358;46.008;11.144;2023-03-01T19:29:43;6.80;99.90
45643;DHT22;31358;46.008;11.144;2023-03-01T19:32:08;6.90;99.90
45643;DHT22;31358;46.008;11.144;2023-03-01T19:34:34;6.90;99.90
45643;DHT22;31358;46.008;11.144;2023-03-01T19:37:01;6.90;99.90
45643;DHT22;31358;46.008;11.144;2023-03-01T19:39:27;6.80;99.90
45643;DHT22;31358;46.008;11.144;2023-03-01T19:41:52;6.70;99.90
45643;DHT22;31358;46.008;11.144;2023-03-01T19:44:18;6.70;99.90
45643;DHT22;31358;46.008;11.144;2023-03-01T19:46:51;6.70;99.90
45643;DHT22;31358;46.008;11.144;2023-03-01T19:49:17;6.50;99.90
45643;DHT22;31358;46.008;11.144;2023-03-01T19:51:43;6.50;99.90
45643;DHT22;31358;46.008;11.144;2023-03-01T19:54:09;6.50;99.90
45643;DHT22;31358;46.008;11.144;2023-03-01T19:56:37;6.30;99.90
45643;DHT22;31358;46.008;11.144;2023-03-01T19:59:03;6.40;99.90
45643;DHT22;31358;46.008;11.144;2023-03-01T20:01:29;6.40;99.90
45643;DHT22;31358;46.008;11.144;2023-03-01T20:03:57;6.40;99.90
45643;DHT22;31358;46.008;11.144;2023-03-01T20:06:23;6.40;99.90
45643;DHT22;31358;46.008;11.144;2023-03-01T20:08:50;6.30;99.90
45643;DHT22;31358;46.008;11.144;2023-03-01T20:11:17;6.10;99.90
45643;DHT22;31358;46.008;11.144;2023-03-01T20:13:44;6.20;99.90
45643;DHT22;31358;46.008;11.144;2023-03-01T20:16:13;6.10;99.90
45643;DHT22;31358;46.008;11.144;2023-03-01T20:18:39;6.00;99.90
45643;DHT22;31358;46.008;11.144;2023-03-01T20:21:05;5.90;99.90
45643;DHT22;31358;46.008;11.144;2023-03-01T20:23:33;6.10;99.90
45643;DHT22;31358;46.008;11.144;2023-03-01T20:26:05;6.30;99.90
45643;DHT22;31358;46.008;11.144;2023-03-01T20:28:32;6.10;99.90
45643;DHT22;31358;46.008;11.144;2023-03-01T20:31:06;6.20;99.90
45643;DHT22;31358;46.008;11.144;2023-03-01T20:33:32;6.20;99.90
45643;DHT22;31358;46.008;11.144;2023-03-01T20:35:58;6.10;99.90
45643;DHT22;31358;46.008;11.144;2023-03-01T20:38:24;6.10;99.90
45643;DHT22;31358;46.008;11.144;2023-03-01T20:40:56;6.10;99.90
45643;DHT22;31358;46.008;11.144;2023-03-01T20:43:22;6.10;99.90
45643;DHT22;31358;46.008;11.144;2023-03-01T20:45:48;6.00;99.90
45643;DHT22;31358;46.008;11.144;2023-03-01T20:48:13;5.90;99.90
45643;DHT22;31358;46.008;11.144;2023-03-01T20:50:40;6.00;99.90
45643;DHT22;31358;46.008;11.144;2023-03-01T20:53:05;6.10;99.90